Record high temperature 52.3°C Record low temperature -14.8°C Record high gust 66.0 kts Record high average 44.0 kts Record daily rain 221.2 mm Record low windchill -23.5°C Record high barometer 1099.9 hPa Record low barometer 815.2 hPa
Daily high pressure 1017.1 hPa Daily low pressure 1012.4 hPa Daily low windchill 19.9°C Daily high heat index 25.1°C Daily high gust speed 12.0 kts NNE Daily high average speed 12.0 kts NNE
Potts Point Sydney
LAST READING AT TIME: 06:30 DATE: 26 March 2017, time of next update: 06:40
Current WeatherHeavy Rain Current Temperature 19.9°C (67.8°F) (Heat Index 19.9°C ), Apparent temp 20.0°C
Maximum Temperature (since 9am)25.1°C at: 13:46 Minimum Temperature (since 9am)19.9°C at: 05:50
Average windspeed (ten minute)5.9 kts (10.9 kmh) Wind Direction (ten minute)NW (315°)
Heat Index 19.9°C Maximum Gust (last hour)6.0 kts (11.1 kmh) at: 06:21
Maximum Gust (since 9am)12.0 kts (22.2 kmh) at: 14:51 Maximum 1 minute average (since 9am)12.0 kts (22.2 kmh) at: 14:51
Rainfall (last hour)0.0 mm Rainfall (since 9am)0.0 mm (0.00 in.)---
Rainfall This month 179.4 mm (7.06 in.) Rainfall To date this year 490.5 mm (19.31 in.)
Maximum rain per minute (last hour)0.0 mm/min Maximum rain per hour (last 6 hours)0.0 mm/hour
Yesterdays rainfall 1.5 mm DewPoint 17.7°C (Wet Bulb :18.5°C )
Humidity 87 %, Humidex 25.7°C Barometer corrected to msl1013.2 hPa
Pressure change +0.3 hPa (last hour) Trend (last hour)STEADY
Pressure change (last 12 hours)+0.4 hPa Pressure change (last 6 hours)-0.8 hPa
Current Indoor Temp. 24.9°C
Current Indoor Hum. 69%
Current solar 0 W/mē Current UV0.0
Maximum solar (since 9am) 846 W/mē Minimum solar (since 9am)1000 W/mē
Current 00:00 hours of sunshine today, current sky: Clear/Clear
Sunshine hours for the year: 274:57 hrs Sunshine hours for the month: 47:36 hrs
Current evapotranspiration rate 0.6 mm per day. Yesterday's reading 3.9

This page is updated from recent data collected by a WS2310 weather station Use the Reload or Refresh facility on your browser to retrieve the latest data.


Animated web cam image


Weather report/warning/Metars

Sydney Airport, Australia (YSSY) 33-57S 151-11E 3M
Mar 25, 2017 - 03:00 PM EDT / 2017.03.25 1900 UTC
Wind: from the NW (320 degrees) at 7 MPH (6 KT):0
Visibility: greater than 7 mile(s):0
Temperature: 68 F (20 C)
Dew Point: 66 F (19 C)
Relative Humidity: 93%
Pressure (altimeter): 29.91 in. Hg (1013 hPa)
ob: YSSY 251900Z 32006KT CAVOK 20/19 Q1013 NOSIG
cycle: 19
Auckland Airport, New Zealand (NZAA) 37-01S 174-48E 6M
Mar 25, 2017 - 03:00 PM EDT / 2017.03.25 1900 UTC
Wind: from the ENE (070 degrees) at 10 MPH (9 KT):0
Visibility: greater than 7 mile(s):0
Weather: Towering cumulus clouds observed
Temperature: 66 F (19 C)
Dew Point: 60 F (16 C)
Relative Humidity: 82%
Pressure (altimeter): 29.94 in. Hg (1014 hPa)
ob: NZAA 251900Z AUTO 07009KT 9999 NCD 19/16 Q1014 TEMPO FM1930 5000 SHRA FEW015TCU
cycle: 19